Time;durP1;ratioP1;P1;durP2;ratioP2;P2;SDS_P1;SDS_P2;PMS_P1;PMS_P2;Temp;Humidity;BMP_temperature;BMP_pressure;BME280_temperature;BME280_humidity;BME280_pressure;Samples;Min_cycle;Max_cycle;Signal;HPM_P1;HPM_P2
2020/12/19 00:02:15;;;;;;;47.75;26.87;;;;;;;1.05;92.43;97688.20;1792269;80;21262;-82
2020/12/19 00:04:43;;;;;;;41.75;21.25;;;;;;;1.06;92.36;97694.23;1792269;80;21266;-83
2020/12/19 00:07:10;;;;;;;46.80;25.85;;;;;;;1.08;92.46;97689.13;1792322;80;21285;-82
2020/12/19 00:09:38;;;;;;;50.15;30.20;;;;;;;1.07;92.38;97699.27;1792245;80;21685;-82
2020/12/19 00:12:06;;;;;;;48.05;27.62;;;;;;;1.06;92.34;97695.05;1791897;80;21158;-82
2020/12/19 00:14:34;;;;;;;45.20;26.33;;;;;;;1.04;92.33;97692.31;1792226;80;21285;-82
2020/12/19 00:17:01;;;;;;;55.17;30.52;;;;;;;1.01;92.28;97702.65;1792238;80;21282;-82
2020/12/19 00:19:29;;;;;;;36.35;21.42;;;;;;;1.00;92.20;97698.93;1792196;80;21274;-82
2020/12/19 00:21:56;;;;;;;53.42;29.87;;;;;;;0.99;92.33;97698.63;1792186;80;21127;-82
2020/12/19 00:24:23;;;;;;;48.02;30.70;;;;;;;0.99;92.37;97711.67;1792411;80;21096;-82
2020/12/19 00:26:50;;;;;;;38.60;22.20;;;;;;;0.99;92.45;97708.56;1795691;79;21136;-82
2020/12/19 00:29:17;;;;;;;33.00;19.27;;;;;;;0.98;92.50;97704.31;1795617;79;21189;-82
2020/12/19 00:31:44;;;;;;;45.38;25.57;;;;;;;0.97;92.57;97706.62;1795775;79;21138;-82
2020/12/19 00:34:11;;;;;;;32.13;19.25;;;;;;;0.95;92.51;97711.23;1795706;79;21131;-82
2020/12/19 00:36:38;;;;;;;42.27;23.22;;;;;;;0.92;92.52;97706.39;1795530;79;21139;-82
2020/12/19 00:39:07;;;;;;;44.10;24.27;;;;;;;0.89;92.54;97712.00;1795622;79;21143;-83
2020/12/19 00:41:34;;;;;;;44.75;25.37;;;;;;;0.95;92.65;97720.36;1795123;80;21271;-82
2020/12/19 00:44:01;;;;;;;38.55;23.60;;;;;;;0.97;92.60;97721.47;1795481;80;21134;-82
2020/12/19 00:46:28;;;;;;;42.88;23.95;;;;;;;0.95;92.52;97718.25;1795557;80;21131;-82
2020/12/19 00:48:55;;;;;;;33.20;20.17;;;;;;;0.94;92.51;97717.45;1795562;80;21150;-82
2020/12/19 00:51:24;;;;;;;26.85;15.80;;;;;;;0.95;92.46;97722.97;1795582;79;21488;-82
2020/12/19 00:53:51;;;;;;;27.85;15.43;;;;;;;0.97;92.43;97719.67;1795496;80;21144;-82
2020/12/19 00:56:25;;;;;;;33.15;16.32;;;;;;;1.00;92.38;97718.02;1795464;80;21127;-82
2020/12/19 00:58:55;;;;;;;34.23;19.15;;;;;;;1.00;92.27;97714.59;1795809;79;21115;-82
2020/12/19 01:01:25;;;;;;;36.10;18.48;;;;;;;0.98;92.15;97711.34;1795828;80;21151;-82
2020/12/19 01:03:59;;;;;;;33.60;21.30;;;;;;;0.94;92.08;97709.61;1795638;80;21150;-82
2020/12/19 01:06:28;;;;;;;35.73;19.42;;;;;;;0.90;92.08;97711.00;1795400;79;21134;-82
2020/12/19 01:08:59;;;;;;;29.98;16.35;;;;;;;0.85;92.03;97705.05;1795667;79;21130;-82
2020/12/19 01:11:29;;;;;;;22.30;13.15;;;;;;;0.85;92.11;97709.47;1795068;79;21143;-83
2020/12/19 01:13:57;;;;;;;22.48;11.85;;;;;;;0.82;92.12;97705.91;1795614;80;21147;-82
2020/12/19 01:16:29;;;;;;;26.12;13.53;;;;;;;0.81;92.19;97709.52;1795523;80;21139;-82
2020/12/19 01:18:59;;;;;;;22.93;12.70;;;;;;;0.81;92.26;97708.20;1795551;79;21143;-82
2020/12/19 01:21:29;;;;;;;31.87;15.58;;;;;;;0.84;92.26;97703.41;1795714;80;21265;-82
2020/12/19 01:23:57;;;;;;;28.67;14.97;;;;;;;0.83;92.15;97701.80;1795737;80;21127;-83
2020/12/19 01:26:24;;;;;;;29.72;15.80;;;;;;;0.82;92.06;97705.91;1792929;79;21659;-82
2020/12/19 01:28:53;;;;;;;24.92;13.95;;;;;;;0.81;92.03;97705.09;1792207;80;21139;-82
2020/12/19 01:31:22;;;;;;;29.18;16.70;;;;;;;0.78;92.06;97700.27;1792202;80;21298;-82
2020/12/19 01:33:50;;;;;;;32.40;18.20;;;;;;;0.76;91.92;97698.84;1792557;80;21151;-82
2020/12/19 01:36:22;;;;;;;26.50;15.43;;;;;;;0.71;91.74;97705.94;1792137;80;21289;-82
2020/12/19 01:38:52;;;;;;;18.57;10.20;;;;;;;0.68;91.77;97704.19;1792207;80;21665;-82
2020/12/19 01:41:22;;;;;;;24.07;12.88;;;;;;;0.66;91.87;97700.96;1792254;80;21281;-83
2020/12/19 01:43:56;;;;;;;27.42;15.18;;;;;;;0.69;91.99;97694.05;1761101;81;21147;-82
2020/12/19 01:46:55;;;;;;;16.02;9.53;;;;;;;0.66;91.88;97695.73;1761076;81;21499;-82
2020/12/19 01:49:25;;;;;;;26.00;14.80;;;;;;;0.65;91.98;97677.97;1761035;81;21530;-82
2020/12/19 01:51:57;;;;;;;23.38;13.25;;;;;;;0.66;91.94;97685.30;1761322;81;21511;-82
2020/12/19 01:54:26;;;;;;;19.30;10.20;;;;;;;0.63;91.87;97680.47;1761143;81;21159;-82
2020/12/19 01:56:56;;;;;;;12.78;7.30;;;;;;;0.61;91.92;97676.75;1760960;81;21155;-82
2020/12/19 01:59:25;;;;;;;21.27;10.75;;;;;;;0.64;91.99;97691.21;1761149;81;21476;-82
2020/12/19 02:02:09;;;;;;;19.17;12.18;;;;;;;0.61;91.84;97688.98;1760986;81;21527;-82
2020/12/19 02:04:36;;;;;;;15.43;9.15;;;;;;;0.57;91.85;97681.54;1733602;81;21507;-82
2020/12/19 02:07:07;;;;;;;20.27;10.78;;;;;;;0.62;91.91;97674.94;1760948;81;21522;-82
2020/12/19 02:09:38;;;;;;;21.97;10.25;;;;;;;0.63;91.88;97667.42;1761266;81;21139;-82
2020/12/19 02:12:06;;;;;;;19.27;10.85;;;;;;;0.61;91.87;97685.07;1770036;80;21115;-82
2020/12/19 02:14:33;;;;;;;17.15;9.75;;;;;;;0.58;91.81;97666.69;1792079;80;21135;-82
2020/12/19 02:17:04;;;;;;;18.52;10.78;;;;;;;0.57;91.83;97668.50;1792065;80;21162;-82
2020/12/19 02:19:33;;;;;;;20.02;10.70;;;;;;;0.56;91.80;97664.74;1792154;80;21262;-82
2020/12/19 02:22:03;;;;;;;14.47;8.05;;;;;;;0.56;91.85;97656.91;1792193;80;21135;-82
2020/12/19 02:24:30;;;;;;;13.98;8.58;;;;;;;0.54;91.83;97663.63;1792410;80;21641;-82
2020/12/19 02:26:58;;;;;;;14.55;8.50;;;;;;;0.54;91.76;97638.84;1792123;80;21321;-82
2020/12/19 02:29:29;;;;;;;16.07;8.45;;;;;;;0.52;91.74;97663.02;1792164;80;21139;-82
2020/12/19 02:31:59;;;;;;;14.70;7.42;;;;;;;0.49;91.71;97669.92;1792365;80;21120;-82
2020/12/19 02:34:28;;;;;;;12.18;7.22;;;;;;;0.49;91.77;97654.27;1792066;80;21147;-82
2020/12/19 02:36:55;;;;;;;18.57;11.18;;;;;;;0.51;91.84;97659.30;1792080;80;21515;-82
2020/12/19 02:39:23;;;;;;;21.25;12.80;;;;;;;0.52;91.81;97654.38;1792429;80;21289;-82
2020/12/19 02:41:50;;;;;;;15.70;8.03;;;;;;;0.50;91.72;97648.05;1791697;80;21297;-82
2020/12/19 02:44:20;;;;;;;19.60;10.82;;;;;;;0.52;91.80;97649.97;1792306;80;21273;-82
2020/12/19 02:46:48;;;;;;;17.82;10.72;;;;;;;0.46;91.66;97639.00;1792356;80;21139;-82
2020/12/19 02:49:15;;;;;;;18.23;10.30;;;;;;;0.42;91.67;97633.02;1792212;80;21281;-82
2020/12/19 02:51:43;;;;;;;14.07;7.17;;;;;;;0.28;91.70;97615.99;1792061;80;21112;-82
2020/12/19 02:54:10;;;;;;;20.48;8.45;;;;;;;0.42;91.92;97607.74;1792068;80;21285;-82
2020/12/19 02:56:37;;;;;;;15.55;8.88;;;;;;;0.47;91.88;97628.06;1792084;80;21119;-82
2020/12/19 02:59:05;;;;;;;13.25;7.70;;;;;;;0.43;91.88;97617.21;1789317;80;21277;-82
2020/12/19 03:01:32;;;;;;;17.60;10.48;;;;;;;0.48;91.93;97614.83;1773898;81;21168;-82
2020/12/19 03:04:01;;;;;;;13.40;7.40;;;;;;;0.49;92.00;97626.07;1774175;81;21099;-82
2020/12/19 03:06:28;;;;;;;18.15;10.45;;;;;;;0.49;92.09;97619.55;1773864;81;21150;-82
2020/12/19 03:08:55;;;;;;;13.35;7.40;;;;;;;0.48;91.98;97622.66;1773923;81;21131;-82
2020/12/19 03:11:22;;;;;;;16.73;10.05;;;;;;;0.47;91.95;97626.77;1757654;80;21653;-82
2020/12/19 03:13:49;;;;;;;14.18;7.72;;;;;;;0.43;91.89;97621.13;1755246;81;21175;-82
2020/12/19 03:16:16;;;;;;;20.20;11.80;;;;;;;0.39;91.84;97616.45;1755232;81;21155;-82
2020/12/19 03:18:43;;;;;;;14.10;6.85;;;;;;;0.32;91.75;97632.06;1763955;81;21507;-82
2020/12/19 03:21:10;;;;;;;16.05;8.33;;;;;;;0.27;91.78;97616.15;1763862;81;21471;-82
2020/12/19 03:23:37;;;;;;;17.82;10.78;;;;;;;0.26;91.89;97621.06;1764033;81;21148;-82
2020/12/19 03:26:04;;;;;;;24.20;14.20;;;;;;;0.22;91.81;97619.83;1763101;81;21539;-82
2020/12/19 03:28:31;;;;;;;23.02;13.53;;;;;;;0.20;91.86;97636.16;1762185;81;21138;-82
2020/12/19 03:30:58;;;;;;;14.35;8.18;;;;;;;0.20;92.04;97625.23;1761881;81;21293;-82
2020/12/19 03:33:26;;;;;;;22.85;9.80;;;;;;;0.19;92.12;97613.69;1761928;81;21301;-82
2020/12/19 03:35:53;;;;;;;19.95;10.63;;;;;;;0.18;92.26;97617.30;1761958;81;21288;-83
2020/12/19 03:38:19;;;;;;;14.63;7.53;;;;;;;0.16;92.23;97615.37;1762068;81;21142;-82
2020/12/19 03:40:47;;;;;;;17.87;10.95;;;;;;;0.13;92.20;97619.64;1761936;81;21285;-82
2020/12/19 03:43:14;;;;;;;20.77;11.88;;;;;;;0.09;92.15;97616.60;1786009;80;21128;-82
2020/12/19 03:45:41;;;;;;;16.55;9.05;;;;;;;0.06;92.23;97616.98;1793219;80;21130;-82
2020/12/19 03:48:08;;;;;;;17.40;8.90;;;;;;;0.04;92.39;97601.22;1793225;80;21134;-82
2020/12/19 03:50:35;;;;;;;16.87;8.35;;;;;;;0.02;92.30;97610.54;1793456;80;21143;-82
2020/12/19 03:53:02;;;;;;;16.65;9.85;;;;;;;-0.02;92.51;97603.56;1793050;80;21111;-82
2020/12/19 03:55:29;;;;;;;21.62;11.25;;;;;;;-0.03;92.43;97609.77;1793209;80;21135;-82
2020/12/19 03:57:56;;;;;;;20.62;9.85;;;;;;;0.01;92.72;97619.85;1793130;80;21150;-82
2020/12/19 04:00:23;;;;;;;27.07;14.53;;;;;;;0.04;92.65;97609.05;1793182;80;21108;-82
2020/12/19 04:02:50;;;;;;;21.40;10.15;;;;;;;0.04;92.52;97608.55;1793203;80;21490;-82
2020/12/19 04:05:18;;;;;;;19.57;12.37;;;;;;;0.05;92.56;97606.75;1793283;80;21115;-82
2020/12/19 04:07:47;;;;;;;17.42;8.63;;;;;;;0.06;92.53;97604.45;1793169;80;21131;-82
2020/12/19 04:10:14;;;;;;;13.05;8.43;;;;;;;0.05;92.51;97603.64;1793163;80;21150;-82
2020/12/19 04:12:41;;;;;;;14.87;7.97;;;;;;;0.07;92.47;97589.92;1792852;80;21111;-82
2020/12/19 04:15:11;;;;;;;15.70;8.38;;;;;;;0.08;92.42;97595.94;1793161;80;21172;-82
2020/12/19 04:17:39;;;;;;;21.73;11.35;;;;;;;0.03;92.38;97595.70;1793424;80;21135;-82
2020/12/19 04:20:09;;;;;;;18.02;9.50;;;;;;;0.01;92.51;97577.64;1793180;80;21112;-82
2020/12/19 04:22:36;;;;;;;21.40;10.10;;;;;;;-0.01;92.53;97585.63;1793299;80;21100;-82
2020/12/19 04:25:04;;;;;;;16.20;8.80;;;;;;;-0.04;92.61;97561.25;1793176;80;21100;-82
2020/12/19 04:27:32;;;;;;;16.00;8.65;;;;;;;-0.02;92.66;97576.20;1793068;80;21162;-82
2020/12/19 04:29:59;;;;;;;14.63;7.53;;;;;;;0.04;92.65;97571.25;1793368;80;21512;-82
2020/12/19 04:32:27;;;;;;;19.42;11.78;;;;;;;0.05;92.56;97553.30;1793321;80;21143;-82
2020/12/19 04:34:54;;;;;;;16.45;8.33;;;;;;;0.05;92.55;97550.70;1793258;80;21139;-82
2020/12/19 04:37:21;;;;;;;19.07;11.43;;;;;;;0.05;92.43;97551.50;1793286;80;21104;-82
2020/12/19 04:39:48;;;;;;;24.15;12.28;;;;;;;0.05;92.43;97537.66;1793338;80;21524;-82
2020/12/19 04:42:15;;;;;;;23.47;13.85;;;;;;;0.04;92.33;97529.53;1793072;80;21151;-82
2020/12/19 04:44:42;;;;;;;24.45;11.33;;;;;;;0.04;92.33;97529.53;1793308;80;21147;-82
2020/12/19 04:47:09;;;;;;;26.97;14.93;;;;;;;-0.06;92.25;97527.25;1793300;80;21127;-82
2020/12/19 04:49:37;;;;;;;21.75;11.05;;;;;;;0.03;92.27;97544.88;1793306;80;21170;-82
2020/12/19 04:52:05;;;;;;;25.32;13.50;;;;;;;0.03;92.18;97543.56;1793285;80;21496;-82
2020/12/19 04:54:31;;;;;;;26.10;15.03;;;;;;;-0.04;92.22;97536.48;1793332;80;21531;-82
2020/12/19 04:57:00;;;;;;;19.95;11.88;;;;;;;-0.04;92.22;97536.48;1793288;80;21119;-82
2020/12/19 04:59:28;;;;;;;23.67;13.00;;;;;;;-0.05;92.25;97553.62;1768718;80;21150;-82
2020/12/19 05:01:56;;;;;;;26.12;14.85;;;;;;;-0.10;92.19;97552.88;1793541;80;21269;-82
2020/12/19 05:04:24;;;;;;;33.08;16.12;;;;;;;-0.15;92.07;97555.23;1793301;80;21130;-82
2020/12/19 05:06:51;;;;;;;27.48;14.03;;;;;;;-0.23;92.37;97551.46;1793284;80;21150;-82
2020/12/19 05:09:18;;;;;;;23.90;14.95;;;;;;;-0.23;92.37;97551.46;1793410;80;21527;-82
2020/12/19 05:11:46;;;;;;;25.02;12.90;;;;;;;-0.21;92.31;97550.77;1792938;80;21184;-82
2020/12/19 05:14:13;;;;;;;18.75;11.33;;;;;;;-0.21;92.36;97548.66;1793196;80;21160;-82
2020/12/19 05:16:40;;;;;;;14.90;9.03;;;;;;;-0.34;92.60;97540.22;1793325;80;21123;-82
2020/12/19 05:19:09;;;;;;;27.13;16.20;;;;;;;-0.34;92.60;97540.22;1793368;80;21124;-82
2020/12/19 05:21:44;;;;;;;25.27;13.13;;;;;;;-0.26;92.54;97571.38;1793720;80;21116;-82
2020/12/19 05:24:17;;;;;;;26.87;13.10;;;;;;;-0.29;92.48;97561.30;1793254;80;21123;-82
2020/12/19 05:26:45;;;;;;;32.63;17.50;;;;;;;-0.31;92.48;97566.70;1794162;80;21115;-82
2020/12/19 05:29:12;;;;;;;32.42;16.42;;;;;;;-0.35;92.39;97571.18;1795288;80;21539;-82
2020/12/19 05:31:39;;;;;;;25.30;16.00;;;;;;;-0.36;92.42;97566.47;1795316;80;21142;-82
2020/12/19 05:34:06;;;;;;;25.80;15.10;;;;;;;-0.37;92.42;97571.86;1795142;80;21641;-82
2020/12/19 05:36:38;;;;;;;27.40;15.40;;;;;;;-0.57;92.42;97538.28;1795254;80;21135;-82
2020/12/19 05:39:07;;;;;;;27.55;15.78;;;;;;;-0.40;92.47;97567.03;1795223;80;21602;-82
2020/12/19 05:41:40;;;;;;;31.47;16.97;;;;;;;-0.40;92.39;97570.94;1794992;80;21181;-82
2020/12/19 05:44:08;;;;;;;33.98;18.87;;;;;;;-0.41;92.47;97560.20;1795136;80;21297;-82
2020/12/19 05:46:41;;;;;;;33.18;16.42;;;;;;;-0.43;92.43;97569.48;1795255;80;21131;-82
2020/12/19 05:49:11;;;;;;;27.70;15.25;;;;;;;-0.43;92.40;97569.98;1795268;80;21254;-82
2020/12/19 05:51:42;;;;;;;21.10;10.88;;;;;;;-0.45;92.48;97570.17;1795591;80;21151;-82
2020/12/19 05:54:15;;;;;;;33.38;11.10;;;;;;;-0.46;92.55;97560.74;1795507;80;21147;-82
2020/12/19 05:56:48;;;;;;;26.75;15.38;;;;;;;-0.43;92.75;97570.78;1795263;80;21258;-82
2020/12/19 05:59:18;;;;;;;19.42;11.55;;;;;;;-0.40;92.69;97570.44;1795188;80;21116;-82
2020/12/19 06:01:48;;;;;;;20.40;12.65;;;;;;;-0.42;92.70;97559.91;1795539;80;21104;-81
2020/12/19 06:04:17;;;;;;;30.85;16.02;;;;;;;-0.54;92.52;97553.56;1795261;80;21618;-82
2020/12/19 06:06:49;;;;;;;31.33;16.42;;;;;;;-0.54;92.52;97553.56;1795532;80;21302;-81
2020/12/19 06:09:16;;;;;;;20.52;11.68;;;;;;;-0.44;92.46;97569.67;1795144;80;21583;-82
2020/12/19 06:11:53;;;;;;;25.08;15.78;;;;;;;-0.40;92.54;97569.14;1790070;80;21754;-81
2020/12/19 06:14:26;;;;;;;29.42;15.00;;;;;;;-0.34;92.45;97568.88;1760660;81;21516;-82
2020/12/19 06:16:58;;;;;;;25.95;15.50;;;;;;;-0.34;92.45;97568.88;1760686;81;21143;-82
2020/12/19 06:19:27;;;;;;;24.10;13.43;;;;;;;-0.32;92.26;97567.70;1734993;81;21132;-82
2020/12/19 06:21:56;;;;;;;25.48;12.75;;;;;;;-0.32;92.26;97567.70;1760622;81;21158;-82
2020/12/19 06:24:48;;;;;;;19.02;8.65;;;;;;;-0.27;92.29;97572.38;1760648;81;21516;-82
2020/12/19 06:27:29;;;;;;;26.48;15.15;;;;;;;-0.22;92.25;97571.31;1711433;81;21197;-82
2020/12/19 06:29:56;;;;;;;21.20;10.25;;;;;;;-0.19;92.07;97572.23;1760655;81;21143;-82
2020/12/19 06:32:27;;;;;;;25.25;14.98;;;;;;;-0.20;91.98;97582.84;1760804;81;21164;-82
2020/12/19 06:35:10;;;;;;;13.40;7.30;;;;;;;-0.20;91.90;97591.97;1760641;81;21498;-82
2020/12/19 06:37:43;;;;;;;18.27;9.38;;;;;;;-0.19;91.63;97590.47;1760708;81;21116;-82
2020/12/19 06:40:20;;;;;;;18.15;9.88;;;;;;;-0.19;91.67;97584.45;1760794;81;21180;-82
2020/12/19 06:42:51;;;;;;;28.90;14.23;;;;;;;-0.18;91.63;97602.51;1736221;81;21094;-82
2020/12/19 06:45:27;;;;;;;23.70;12.50;;;;;;;-0.21;91.38;97593.77;1742611;82;21469;-82
2020/12/19 06:47:58;;;;;;;23.55;12.35;;;;;;;-0.19;91.44;97603.50;1749852;82;21140;-83
2020/12/19 06:50:30;;;;;;;24.52;14.23;;;;;;;-0.18;91.40;97598.60;1757655;81;21520;-83
2020/12/19 06:53:16;;;;;;;26.90;14.00;;;;;;;-0.14;91.32;97601.17;1785060;79;22935;-81
2020/12/19 06:55:43;;;;;;;18.17;9.18;;;;;;;-0.21;91.23;97613.81;1759554;81;21119;-81
2020/12/19 06:58:09;;;;;;;25.20;12.47;;;;;;;-0.24;91.17;97608.48;1759381;81;21132;-81
2020/12/19 07:00:37;;;;;;;22.58;12.07;;;;;;;-0.22;91.19;97615.61;1744815;81;21175;-81
2020/12/19 07:03:05;;;;;;;19.25;10.88;;;;;;;-0.23;91.11;97610.09;1729479;83;21149;-81
2020/12/19 07:05:35;;;;;;;16.82;8.50;;;;;;;-0.20;91.11;97601.89;1729519;83;21147;-81
2020/12/19 07:08:23;;;;;;;23.17;12.47;;;;;;;-0.18;91.12;97605.12;1729980;83;21115;-81
2020/12/19 07:10:51;;;;;;;22.35;12.03;;;;;;;-0.17;90.97;97605.92;1729322;81;21168;-82
2020/12/19 07:13:19;;;;;;;17.67;10.10;;;;;;;-0.15;90.92;97608.65;1729211;83;21111;-82
2020/12/19 07:15:52;;;;;;;24.98;13.45;;;;;;;-0.04;90.83;97608.66;1729331;83;21150;-82
2020/12/19 07:18:37;;;;;;;22.73;13.55;;;;;;;0.12;90.72;97603.69;1729515;83;21119;-82
2020/12/19 07:21:09;;;;;;;19.52;11.45;;;;;;;0.35;90.50;97615.22;1729412;81;21162;-82
2020/12/19 07:23:40;;;;;;;24.18;12.70;;;;;;;0.63;89.93;97621.76;1729270;83;21108;-83
2020/12/19 07:26:07;;;;;;;23.52;14.45;;;;;;;0.87;89.26;97617.41;1729584;83;21159;-82
2020/12/19 07:28:35;;;;;;;22.58;11.57;;;;;;;1.09;88.69;97618.92;1729535;83;21155;-82
2020/12/19 07:31:02;;;;;;;21.82;12.70;;;;;;;1.37;87.93;97615.44;1729315;81;21151;-82
2020/12/19 07:33:29;;;;;;;20.70;12.20;;;;;;;1.50;87.04;97611.57;1729446;83;21103;-83
2020/12/19 07:35:58;;;;;;;22.90;13.40;;;;;;;1.59;86.47;97608.30;1729391;83;21163;-83
2020/12/19 07:38:27;;;;;;;18.40;12.05;;;;;;;1.63;85.71;97610.31;1729580;83;21113;-82
2020/12/19 07:40:56;;;;;;;20.00;12.60;;;;;;;1.68;85.39;97616.25;1729381;82;21151;-82
2020/12/19 07:43:24;;;;;;;21.48;11.20;;;;;;;1.69;84.91;97613.46;1729285;83;21135;-83
2020/12/19 07:45:58;;;;;;;22.82;12.00;;;;;;;1.79;84.91;97616.48;1729382;83;21111;-83
2020/12/19 07:48:26;;;;;;;20.15;11.25;;;;;;;1.85;84.93;97607.56;1729520;83;21155;-83
2020/12/19 07:50:53;;;;;;;22.77;11.80;;;;;;;1.97;84.42;97611.19;1729211;82;21143;-83
2020/12/19 07:53:20;;;;;;;17.70;10.55;;;;;;;2.14;84.54;97603.28;1729254;83;21170;-83
2020/12/19 07:55:52;;;;;;;21.97;12.35;;;;;;;2.21;83.73;97601.97;1729306;83;21159;-83
2020/12/19 07:58:21;;;;;;;20.70;11.60;;;;;;;2.19;83.23;97598.25;1729440;83;21145;-83
2020/12/19 08:00:48;;;;;;;18.73;11.68;;;;;;;2.22;83.50;97605.69;1729279;81;21142;-83
2020/12/19 08:03:15;;;;;;;19.75;12.35;;;;;;;2.29;83.47;97598.66;1729285;83;21146;-83
2020/12/19 08:05:43;;;;;;;15.05;8.23;;;;;;;2.29;83.01;97603.09;1728736;83;21122;-83
2020/12/19 08:08:12;;;;;;;13.50;7.05;;;;;;;2.22;82.68;97603.08;1729079;83;21130;-83
2020/12/19 08:10:39;;;;;;;19.15;9.70;;;;;;;2.21;82.33;97607.20;1728789;82;21519;-83
2020/12/19 08:13:12;;;;;;;18.27;9.43;;;;;;;2.10;82.30;97602.05;1728727;83;21243;-84
2020/12/19 08:15:40;;;;;;;11.50;6.90;;;;;;;2.11;82.39;97608.89;1728937;83;21115;-83
2020/12/19 08:18:09;;;;;;;15.48;8.25;;;;;;;2.01;82.14;97608.50;1729055;83;21500;-83
2020/12/19 08:20:39;;;;;;;13.20;7.80;;;;;;;1.91;82.17;97610.18;1728712;82;21188;-83
2020/12/19 08:23:09;;;;;;;16.07;9.18;;;;;;;1.79;82.29;97594.77;1728886;83;21445;-83
2020/12/19 08:25:37;;;;;;;14.83;8.27;;;;;;;1.78;82.68;97607.53;1729111;83;21273;-83
2020/12/19 08:28:05;;;;;;;20.30;10.35;;;;;;;1.78;82.96;97603.11;1700226;83;21534;-83
2020/12/19 08:30:34;;;;;;;19.45;10.38;;;;;;;1.83;83.05;97604.32;1728846;82;21139;-83
2020/12/19 08:33:08;;;;;;;20.68;12.65;;;;;;;1.85;82.90;97603.64;1729007;83;21155;-83
2020/12/19 08:35:46;;;;;;;13.68;8.50;;;;;;;1.75;83.12;97586.52;1728769;83;21096;-83
2020/12/19 08:38:23;;;;;;;12.68;7.42;;;;;;;1.90;83.10;97606.46;1728903;83;21149;-83
2020/12/19 08:40:55;;;;;;;22.48;12.43;;;;;;;1.92;82.90;97608.37;1728735;82;21184;-83
2020/12/19 08:43:35;;;;;;;16.52;8.38;;;;;;;1.94;83.24;97618.93;1728779;83;21280;-83
2020/12/19 08:46:16;;;;;;;17.00;10.55;;;;;;;2.03;83.18;97609.10;1728747;83;21123;-83
2020/12/19 08:48:46;;;;;;;21.95;13.03;;;;;;;2.09;83.26;97608.29;1728876;83;21112;-83
2020/12/19 08:51:14;;;;;;;18.65;11.55;;;;;;;2.19;83.41;97613.14;1728652;82;21510;-83
2020/12/19 08:53:42;;;;;;;17.70;10.68;;;;;;;2.20;82.99;97611.62;1734117;83;21661;-83
2020/12/19 08:56:17;;;;;;;19.67;11.97;;;;;;;2.22;82.86;97601.77;1734197;82;21538;-83
2020/12/19 08:58:54;;;;;;;18.17;10.23;;;;;;;2.27;82.92;97605.11;1734501;82;21296;-83
2020/12/19 09:01:23;;;;;;;17.77;10.63;;;;;;;2.31;83.00;97604.50;1734068;81;21705;-83
2020/12/19 09:03:52;;;;;;;20.70;11.53;;;;;;;2.33;82.93;97601.17;1734314;83;21526;-83
2020/12/19 09:06:19;;;;;;;18.42;11.08;;;;;;;2.48;82.94;97599.66;1734173;82;21154;-83
2020/12/19 09:08:48;;;;;;;21.50;12.55;;;;;;;2.57;82.86;97587.18;1734413;83;21292;-83
2020/12/19 09:11:28;;;;;;;18.92;12.03;;;;;;;2.63;82.69;97588.47;1734271;81;21292;-83
2020/12/19 09:14:11;;;;;;;21.70;12.60;;;;;;;2.63;82.65;97579.81;1705185;84;21155;-83
2020/12/19 09:16:49;;;;;;;19.42;10.75;;;;;;;2.76;82.55;97574.56;1704961;84;21514;-82
2020/12/19 09:19:18;;;;;;;22.00;12.60;;;;;;;2.80;81.96;97584.11;1705120;84;21158;-82
2020/12/19 09:22:01;;;;;;;18.20;11.08;;;;;;;2.80;82.19;97578.88;1704934;83;21158;-82
2020/12/19 09:24:29;;;;;;;21.48;12.90;;;;;;;2.93;82.53;97569.17;1704978;84;21491;-82
2020/12/19 09:26:56;;;;;;;23.77;14.38;;;;;;;3.11;82.84;97575.59;1705206;84;21158;-82
2020/12/19 09:29:24;;;;;;;22.77;13.43;;;;;;;3.22;82.60;97572.30;1705011;84;21200;-83
2020/12/19 09:31:51;;;;;;;21.12;12.30;;;;;;;3.27;82.02;97569.37;1704906;84;21161;-82
2020/12/19 09:34:18;;;;;;;22.90;12.85;;;;;;;3.28;81.23;97568.36;1705208;84;21228;-82
2020/12/19 09:36:46;;;;;;;21.25;13.68;;;;;;;3.35;81.66;97557.03;1704990;84;21139;-83
2020/12/19 09:39:13;;;;;;;19.65;11.03;;;;;;;3.42;81.10;97551.27;1705080;84;21115;-83
2020/12/19 09:41:41;;;;;;;24.07;13.25;;;;;;;3.40;80.54;97542.81;1708787;83;21511;-82
2020/12/19 09:44:09;;;;;;;20.72;10.40;;;;;;;3.37;80.61;97551.88;1734432;82;21265;-83
2020/12/19 09:46:36;;;;;;;21.52;12.43;;;;;;;3.48;80.86;97542.05;1734233;82;21143;-83
2020/12/19 09:49:03;;;;;;;20.60;12.18;;;;;;;3.66;81.33;97545.78;1734208;83;21139;-83
2020/12/19 09:51:31;;;;;;;20.52;13.50;;;;;;;3.73;80.56;97538.18;1734080;81;21162;-83
2020/12/19 09:54:00;;;;;;;19.40;12.35;;;;;;;3.71;80.22;97541.53;1734091;82;21162;-83
2020/12/19 09:56:28;;;;;;;21.50;10.98;;;;;;;3.81;80.82;97537.14;1734266;83;21138;-83
2020/12/19 09:58:55;;;;;;;20.27;12.55;;;;;;;4.02;80.84;97538.59;1734273;83;21646;-83
2020/12/19 10:01:22;;;;;;;20.88;11.83;;;;;;;4.13;80.53;97531.34;1734171;81;21261;-83
2020/12/19 10:03:49;;;;;;;17.12;11.43;;;;;;;4.24;80.23;97533.79;1734324;83;21272;-83
2020/12/19 10:06:16;;;;;;;19.82;11.85;;;;;;;4.28;79.21;97530.51;1734219;83;21625;-83
2020/12/19 10:08:43;;;;;;;20.65;11.97;;;;;;;4.26;78.87;97528.61;1734201;82;21134;-83
2020/12/19 10:11:10;;;;;;;15.85;9.58;;;;;;;4.33;79.21;97532.48;1734187;81;21136;-83
2020/12/19 10:13:37;;;;;;;15.85;10.63;;;;;;;4.39;78.38;97535.06;1734161;82;21115;-83
2020/12/19 10:16:06;;;;;;;23.62;12.82;;;;;;;4.42;78.29;97530.69;1734387;83;21106;-83
2020/12/19 10:18:33;;;;;;;16.80;11.25;;;;;;;4.51;78.86;97528.59;1734169;83;21110;-83
2020/12/19 10:21:01;;;;;;;20.57;12.93;;;;;;;4.61;77.90;97526.25;1734086;81;21531;-83
2020/12/19 10:23:29;;;;;;;20.35;11.88;;;;;;;4.75;79.29;97526.41;1734300;82;21530;-83
2020/12/19 10:25:56;;;;;;;19.17;12.50;;;;;;;4.95;78.75;97530.16;1734179;82;21146;-83
2020/12/19 10:28:24;;;;;;;21.37;12.13;;;;;;;5.01;77.89;97526.64;1734415;83;21281;-83
2020/12/19 10:30:51;;;;;;;19.87;12.30;;;;;;;5.12;78.01;97524.30;1734024;81;21154;-83
2020/12/19 10:33:19;;;;;;;18.87;12.00;;;;;;;5.20;78.29;97522.67;1734131;83;21170;-83
2020/12/19 10:35:48;;;;;;;20.95;12.03;;;;;;;5.32;77.33;97521.70;1734106;83;21141;-83
2020/12/19 10:38:20;;;;;;;19.73;11.95;;;;;;;5.32;77.60;97523.02;1734137;82;21143;-83
2020/12/19 10:40:48;;;;;;;18.80;11.70;;;;;;;5.41;77.41;97518.27;1734156;81;21157;-83
2020/12/19 10:43:15;;;;;;;20.88;12.43;;;;;;;5.44;76.76;97514.39;1734062;82;21162;-83
2020/12/19 10:45:42;;;;;;;21.10;14.23;;;;;;;5.48;76.98;97512.91;1734183;82;21511;-83
2020/12/19 10:48:09;;;;;;;24.87;13.48;;;;;;;5.55;76.78;97511.00;1734173;83;21134;-84
2020/12/19 10:50:36;;;;;;;21.82;13.60;;;;;;;5.53;75.21;97503.85;1734149;81;21143;-83
2020/12/19 10:53:03;;;;;;;23.50;13.95;;;;;;;5.46;76.43;97505.76;1731284;82;21166;-83
2020/12/19 10:55:31;;;;;;;20.32;13.45;;;;;;;5.55;76.36;97500.48;1728700;83;21269;-83
2020/12/19 10:57:58;;;;;;;22.82;14.30;;;;;;;5.48;76.02;97501.87;1728728;83;21142;-83
2020/12/19 11:00:25;;;;;;;20.43;12.28;;;;;;;5.58;76.37;97502.66;1728700;82;21486;-83
2020/12/19 11:02:53;;;;;;;18.15;12.35;;;;;;;5.68;75.78;97502.92;1728657;83;21138;-83
2020/12/19 11:05:20;;;;;;;18.42;11.25;;;;;;;5.66;75.77;97497.89;1728717;83;21510;-83
2020/12/19 11:07:47;;;;;;;18.12;11.78;;;;;;;5.67;74.95;97492.12;1728698;83;21183;-83
2020/12/19 11:10:14;;;;;;;19.30;10.55;;;;;;;5.76;75.00;97489.95;1728626;82;21265;-83
2020/12/19 11:12:41;;;;;;;20.88;11.55;;;;;;;5.84;75.30;97490.95;1728616;83;21510;-83
2020/12/19 11:15:08;;;;;;;18.32;11.05;;;;;;;5.82;73.98;97483.28;1728591;83;21621;-84
2020/12/19 11:17:35;;;;;;;17.67;10.88;;;;;;;5.79;74.21;97488.20;1728806;83;21119;-83
2020/12/19 11:20:03;;;;;;;18.98;12.63;;;;;;;5.72;73.39;97479.59;1728655;82;21327;-83
2020/12/19 11:22:31;;;;;;;18.77;12.07;;;;;;;5.72;74.13;97486.97;1728800;83;21455;-83
2020/12/19 11:24:58;;;;;;;22.85;12.65;;;;;;;5.78;74.17;97487.41;1728632;83;21634;-84
2020/12/19 11:27:25;;;;;;;20.12;11.88;;;;;;;5.79;73.98;97492.95;1728566;83;21638;-83
2020/12/19 11:29:52;;;;;;;17.17;11.28;;;;;;;5.88;74.33;97498.16;1728655;82;21269;-84
2020/12/19 11:32:19;;;;;;;19.20;11.03;;;;;;;5.97;73.85;97491.30;1728602;83;21277;-83
2020/12/19 11:34:46;;;;;;;17.42;11.38;;;;;;;6.07;74.31;97491.55;1728631;83;21261;-83